sensor_id;sensor_type;location;lat;lon;timestamp;temperature;humidity
34095;DHT22;20372;47.080;15.410;2023-06-10T00:01:10;16.30;99.90
34095;DHT22;20372;47.080;15.410;2023-06-10T00:03:36;16.20;99.90
34095;DHT22;20372;47.080;15.410;2023-06-10T00:06:01;16.10;99.90
34095;DHT22;20372;47.080;15.410;2023-06-10T00:08:27;16.10;99.90
34095;DHT22;20372;47.080;15.410;2023-06-10T00:10:57;16.10;99.90
34095;DHT22;20372;47.080;15.410;2023-06-10T00:13:22;16.10;99.90
34095;DHT22;20372;47.080;15.410;2023-06-10T00:15:48;16.00;99.90
34095;DHT22;20372;47.080;15.410;2023-06-10T00:18:14;16.00;99.90
34095;DHT22;20372;47.080;15.410;2023-06-10T00:20:40;16.00;99.90
34095;DHT22;20372;47.080;15.410;2023-06-10T00:23:06;16.00;99.90
34095;DHT22;20372;47.080;15.410;2023-06-10T00:25:33;16.00;99.90
34095;DHT22;20372;47.080;15.410;2023-06-10T00:27:59;16.00;99.90
34095;DHT22;20372;47.080;15.410;2023-06-10T00:30:25;15.90;99.90
34095;DHT22;20372;47.080;15.410;2023-06-10T00:32:50;15.90;99.90
34095;DHT22;20372;47.080;15.410;2023-06-10T00:35:16;15.90;99.90
34095;DHT22;20372;47.080;15.410;2023-06-10T00:37:41;15.80;99.90
34095;DHT22;20372;47.080;15.410;2023-06-10T00:40:07;15.80;99.90
34095;DHT22;20372;47.080;15.410;2023-06-10T00:42:34;15.80;99.90
34095;DHT22;20372;47.080;15.410;2023-06-10T00:45:00;15.80;99.90
34095;DHT22;20372;47.080;15.410;2023-06-10T00:47:25;15.70;99.90
34095;DHT22;20372;47.080;15.410;2023-06-10T00:49:51;15.70;99.90
34095;DHT22;20372;47.080;15.410;2023-06-10T00:52:17;15.60;99.90
34095;DHT22;20372;47.080;15.410;2023-06-10T00:54:45;15.70;99.90
34095;DHT22;20372;47.080;15.410;2023-06-10T00:57:10;15.60;99.90
34095;DHT22;20372;47.080;15.410;2023-06-10T00:59:38;15.60;99.90
34095;DHT22;20372;47.080;15.410;2023-06-10T01:02:05;15.60;99.90
34095;DHT22;20372;47.080;15.410;2023-06-10T01:04:30;15.60;99.90
34095;DHT22;20372;47.080;15.410;2023-06-10T01:07:17;15.70;99.90
34095;DHT22;20372;47.080;15.410;2023-06-10T01:09:57;15.70;99.90
34095;DHT22;20372;47.080;15.410;2023-06-10T01:15:17;15.70;99.90
34095;DHT22;20372;47.080;15.410;2023-06-10T01:17:56;15.80;99.90
34095;DHT22;20372;47.080;15.410;2023-06-10T01:20:23;15.80;99.90
34095;DHT22;20372;47.080;15.410;2023-06-10T01:22:49;15.70;99.90
34095;DHT22;20372;47.080;15.410;2023-06-10T01:25:16;15.70;99.90
34095;DHT22;20372;47.080;15.410;2023-06-10T01:27:43;15.60;99.90
34095;DHT22;20372;47.080;15.410;2023-06-10T01:30:14;15.60;99.90
34095;DHT22;20372;47.080;15.410;2023-06-10T01:32:43;15.60;99.90
34095;DHT22;20372;47.080;15.410;2023-06-10T01:35:10;15.60;99.90
34095;DHT22;20372;47.080;15.410;2023-06-10T01:37:37;15.50;99.90
34095;DHT22;20372;47.080;15.410;2023-06-10T01:40:04;15.50;99.90
34095;DHT22;20372;47.080;15.410;2023-06-10T01:42:31;15.60;99.90
34095;DHT22;20372;47.080;15.410;2023-06-10T01:44:57;15.60;99.90
34095;DHT22;20372;47.080;15.410;2023-06-10T01:47:23;15.60;99.90
34095;DHT22;20372;47.080;15.410;2023-06-10T01:49:48;15.70;99.90
34095;DHT22;20372;47.080;15.410;2023-06-10T01:52:14;15.60;99.90
34095;DHT22;20372;47.080;15.410;2023-06-10T01:54:40;15.60;99.90
34095;DHT22;20372;47.080;15.410;2023-06-10T01:57:05;15.70;99.90
34095;DHT22;20372;47.080;15.410;2023-06-10T01:59:31;15.60;99.90
34095;DHT22;20372;47.080;15.410;2023-06-10T02:01:57;15.60;99.90
34095;DHT22;20372;47.080;15.410;2023-06-10T02:04:23;15.50;99.90
34095;DHT22;20372;47.080;15.410;2023-06-10T02:06:48;15.50;99.90
34095;DHT22;20372;47.080;15.410;2023-06-10T02:09:14;15.50;99.90
34095;DHT22;20372;47.080;15.410;2023-06-10T02:11:39;15.50;99.90
34095;DHT22;20372;47.080;15.410;2023-06-10T02:14:05;15.50;99.90
34095;DHT22;20372;47.080;15.410;2023-06-10T02:16:31;15.50;99.90
34095;DHT22;20372;47.080;15.410;2023-06-10T02:18:56;15.60;99.90
34095;DHT22;20372;47.080;15.410;2023-06-10T02:21:22;15.50;99.90
34095;DHT22;20372;47.080;15.410;2023-06-10T02:23:47;15.40;99.90
34095;DHT22;20372;47.080;15.410;2023-06-10T02:26:13;15.40;99.90
34095;DHT22;20372;47.080;15.410;2023-06-10T02:28:42;15.30;99.90
34095;DHT22;20372;47.080;15.410;2023-06-10T02:31:07;15.30;99.90
34095;DHT22;20372;47.080;15.410;2023-06-10T02:33:33;15.40;99.90
34095;DHT22;20372;47.080;15.410;2023-06-10T02:35:59;15.40;99.90
34095;DHT22;20372;47.080;15.410;2023-06-10T02:38:24;15.40;99.90
34095;DHT22;20372;47.080;15.410;2023-06-10T02:40:50;15.40;99.90
34095;DHT22;20372;47.080;15.410;2023-06-10T02:43:15;15.40;99.90
34095;DHT22;20372;47.080;15.410;2023-06-10T02:45:41;15.40;99.90
34095;DHT22;20372;47.080;15.410;2023-06-10T02:48:07;15.30;99.90
34095;DHT22;20372;47.080;15.410;2023-06-10T02:50:32;15.40;99.90
34095;DHT22;20372;47.080;15.410;2023-06-10T02:52:58;15.30;99.90
34095;DHT22;20372;47.080;15.410;2023-06-10T02:55:23;15.20;99.90
34095;DHT22;20372;47.080;15.410;2023-06-10T02:57:51;15.20;99.90
34095;DHT22;20372;47.080;15.410;2023-06-10T03:00:17;15.20;99.90
34095;DHT22;20372;47.080;15.410;2023-06-10T03:02:45;15.10;99.90
34095;DHT22;20372;47.080;15.410;2023-06-10T03:05:11;15.10;99.90
34095;DHT22;20372;47.080;15.410;2023-06-10T03:07:38;15.20;99.90
34095;DHT22;20372;47.080;15.410;2023-06-10T03:10:05;15.30;99.90
34095;DHT22;20372;47.080;15.410;2023-06-10T03:12:31;15.30;99.90
34095;DHT22;20372;47.080;15.410;2023-06-10T03:14:57;15.40;99.90
34095;DHT22;20372;47.080;15.410;2023-06-10T03:17:22;15.40;99.90
34095;DHT22;20372;47.080;15.410;2023-06-10T03:19:48;15.50;99.90
34095;DHT22;20372;47.080;15.410;2023-06-10T03:22:14;15.50;99.90
34095;DHT22;20372;47.080;15.410;2023-06-10T03:24:40;15.60;99.90
34095;DHT22;20372;47.080;15.410;2023-06-10T03:27:06;15.60;99.90
34095;DHT22;20372;47.080;15.410;2023-06-10T03:29:32;15.60;99.90
34095;DHT22;20372;47.080;15.410;2023-06-10T03:31:58;15.60;99.90
34095;DHT22;20372;47.080;15.410;2023-06-10T03:34:23;15.60;99.90
34095;DHT22;20372;47.080;15.410;2023-06-10T03:36:49;15.60;99.90
34095;DHT22;20372;47.080;15.410;2023-06-10T03:39:15;15.70;99.90
34095;DHT22;20372;47.080;15.410;2023-06-10T03:41:40;15.70;99.90
34095;DHT22;20372;47.080;15.410;2023-06-10T03:44:06;15.70;99.90
34095;DHT22;20372;47.080;15.410;2023-06-10T03:46:32;15.70;99.90
34095;DHT22;20372;47.080;15.410;2023-06-10T03:48:57;15.70;99.90
34095;DHT22;20372;47.080;15.410;2023-06-10T03:51:26;15.80;99.90
34095;DHT22;20372;47.080;15.410;2023-06-10T03:53:51;15.80;99.90
34095;DHT22;20372;47.080;15.410;2023-06-10T03:56:17;15.80;99.90
34095;DHT22;20372;47.080;15.410;2023-06-10T03:58:42;15.80;99.90
34095;DHT22;20372;47.080;15.410;2023-06-10T04:01:08;15.80;99.90
34095;DHT22;20372;47.080;15.410;2023-06-10T04:03:34;15.90;99.90
34095;DHT22;20372;47.080;15.410;2023-06-10T04:05:59;16.00;99.90
34095;DHT22;20372;47.080;15.410;2023-06-10T04:08:25;16.00;99.90
34095;DHT22;20372;47.080;15.410;2023-06-10T04:10:51;15.90;99.90
34095;DHT22;20372;47.080;15.410;2023-06-10T04:13:16;15.90;99.90
34095;DHT22;20372;47.080;15.410;2023-06-10T04:15:42;15.80;99.90
34095;DHT22;20372;47.080;15.410;2023-06-10T04:18:08;15.70;99.90
34095;DHT22;20372;47.080;15.410;2023-06-10T04:20:33;15.70;99.90
34095;DHT22;20372;47.080;15.410;2023-06-10T04:22:59;15.80;99.90
34095;DHT22;20372;47.080;15.410;2023-06-10T04:25:25;15.60;99.90
34095;DHT22;20372;47.080;15.410;2023-06-10T04:27:51;15.60;99.90
34095;DHT22;20372;47.080;15.410;2023-06-10T04:30:17;15.60;99.90
34095;DHT22;20372;47.080;15.410;2023-06-10T04:32:43;15.60;99.90
34095;DHT22;20372;47.080;15.410;2023-06-10T04:35:11;15.70;99.90
34095;DHT22;20372;47.080;15.410;2023-06-10T04:37:37;15.80;99.90
34095;DHT22;20372;47.080;15.410;2023-06-10T04:40:02;15.70;99.90
34095;DHT22;20372;47.080;15.410;2023-06-10T04:42:28;15.70;99.90
34095;DHT22;20372;47.080;15.410;2023-06-10T04:44:54;15.80;99.90
34095;DHT22;20372;47.080;15.410;2023-06-10T04:47:19;15.80;99.90
34095;DHT22;20372;47.080;15.410;2023-06-10T04:49:45;15.80;99.90
34095;DHT22;20372;47.080;15.410;2023-06-10T04:52:11;15.90;99.90
34095;DHT22;20372;47.080;15.410;2023-06-10T04:54:38;16.00;99.90
34095;DHT22;20372;47.080;15.410;2023-06-10T04:57:04;16.00;99.90
34095;DHT22;20372;47.080;15.410;2023-06-10T04:59:32;16.00;99.90
34095;DHT22;20372;47.080;15.410;2023-06-10T05:01:57;16.10;99.90
34095;DHT22;20372;47.080;15.410;2023-06-10T05:04:25;16.20;99.90
34095;DHT22;20372;47.080;15.410;2023-06-10T05:06:50;16.30;99.90
34095;DHT22;20372;47.080;15.410;2023-06-10T05:09:16;16.30;99.90
34095;DHT22;20372;47.080;15.410;2023-06-10T05:11:42;16.30;99.90
34095;DHT22;20372;47.080;15.410;2023-06-10T05:14:07;16.40;99.90
34095;DHT22;20372;47.080;15.410;2023-06-10T05:16:33;16.50;99.90
34095;DHT22;20372;47.080;15.410;2023-06-10T05:18:58;16.60;99.90
34095;DHT22;20372;47.080;15.410;2023-06-10T05:21:24;16.70;99.90
34095;DHT22;20372;47.080;15.410;2023-06-10T05:23:49;16.90;99.90
34095;DHT22;20372;47.080;15.410;2023-06-10T05:26:15;17.10;99.90
34095;DHT22;20372;47.080;15.410;2023-06-10T05:28:41;17.10;99.90
34095;DHT22;20372;47.080;15.410;2023-06-10T05:31:07;17.10;99.90
34095;DHT22;20372;47.080;15.410;2023-06-10T05:33:32;17.20;99.90
34095;DHT22;20372;47.080;15.410;2023-06-10T05:35:58;17.30;99.90
34095;DHT22;20372;47.080;15.410;2023-06-10T05:38:23;17.40;99.90
34095;DHT22;20372;47.080;15.410;2023-06-10T05:40:49;17.30;99.90
34095;DHT22;20372;47.080;15.410;2023-06-10T05:43:15;17.20;99.90
34095;DHT22;20372;47.080;15.410;2023-06-10T05:45:42;17.30;99.90
34095;DHT22;20372;47.080;15.410;2023-06-10T05:48:07;17.30;99.90
34095;DHT22;20372;47.080;15.410;2023-06-10T05:50:33;17.30;99.90
34095;DHT22;20372;47.080;15.410;2023-06-10T05:53:04;17.40;99.90
34095;DHT22;20372;47.080;15.410;2023-06-10T05:55:29;17.50;99.90
34095;DHT22;20372;47.080;15.410;2023-06-10T05:57:59;17.40;99.90
34095;DHT22;20372;47.080;15.410;2023-06-10T06:00:25;17.50;99.90
34095;DHT22;20372;47.080;15.410;2023-06-10T06:02:52;17.50;99.90
34095;DHT22;20372;47.080;15.410;2023-06-10T06:05:18;17.60;99.90
34095;DHT22;20372;47.080;15.410;2023-06-10T06:07:43;17.60;99.90
34095;DHT22;20372;47.080;15.410;2023-06-10T06:10:09;17.60;99.90
34095;DHT22;20372;47.080;15.410;2023-06-10T06:12:35;17.60;99.90
34095;DHT22;20372;47.080;15.410;2023-06-10T06:15:00;17.60;99.90
34095;DHT22;20372;47.080;15.410;2023-06-10T06:17:26;17.50;99.90
34095;DHT22;20372;47.080;15.410;2023-06-10T06:19:51;17.50;99.90
34095;DHT22;20372;47.080;15.410;2023-06-10T06:22:17;17.60;99.90
34095;DHT22;20372;47.080;15.410;2023-06-10T06:24:46;17.70;99.90
34095;DHT22;20372;47.080;15.410;2023-06-10T06:27:12;17.80;99.90
34095;DHT22;20372;47.080;15.410;2023-06-10T06:29:38;17.90;99.90
34095;DHT22;20372;47.080;15.410;2023-06-10T06:32:03;18.00;99.90
34095;DHT22;20372;47.080;15.410;2023-06-10T06:34:29;18.00;99.90
34095;DHT22;20372;47.080;15.410;2023-06-10T06:36:54;18.00;99.90
34095;DHT22;20372;47.080;15.410;2023-06-10T06:39:20;18.10;99.90
34095;DHT22;20372;47.080;15.410;2023-06-10T06:41:46;18.10;99.90
34095;DHT22;20372;47.080;15.410;2023-06-10T06:44:11;18.20;99.90
34095;DHT22;20372;47.080;15.410;2023-06-10T06:46:37;18.20;99.90
34095;DHT22;20372;47.080;15.410;2023-06-10T06:49:02;18.30;99.90
34095;DHT22;20372;47.080;15.410;2023-06-10T06:51:28;18.20;99.90
34095;DHT22;20372;47.080;15.410;2023-06-10T06:53:53;18.20;99.90
34095;DHT22;20372;47.080;15.410;2023-06-10T06:56:22;18.30;99.90
34095;DHT22;20372;47.080;15.410;2023-06-10T06:58:47;18.40;99.90
34095;DHT22;20372;47.080;15.410;2023-06-10T07:01:13;18.60;99.90
34095;DHT22;20372;47.080;15.410;2023-06-10T07:03:38;18.40;99.90
34095;DHT22;20372;47.080;15.410;2023-06-10T07:06:04;18.50;99.90
34095;DHT22;20372;47.080;15.410;2023-06-10T07:08:30;18.60;99.90
34095;DHT22;20372;47.080;15.410;2023-06-10T07:10:56;18.50;99.90
34095;DHT22;20372;47.080;15.410;2023-06-10T07:13:21;18.60;99.90
34095;DHT22;20372;47.080;15.410;2023-06-10T07:15:47;18.80;99.90
34095;DHT22;20372;47.080;15.410;2023-06-10T07:18:14;18.70;99.90
34095;DHT22;20372;47.080;15.410;2023-06-10T07:20:40;18.60;99.90
34095;DHT22;20372;47.080;15.410;2023-06-10T07:23:06;18.60;99.90
34095;DHT22;20372;47.080;15.410;2023-06-10T07:25:32;18.60;99.90
34095;DHT22;20372;47.080;15.410;2023-06-10T07:27:58;18.70;99.90
34095;DHT22;20372;47.080;15.410;2023-06-10T07:30:23;18.70;99.90
34095;DHT22;20372;47.080;15.410;2023-06-10T07:32:49;18.80;99.90
34095;DHT22;20372;47.080;15.410;2023-06-10T07:35:14;18.90;99.90
34095;DHT22;20372;47.080;15.410;2023-06-10T07:37:40;18.90;99.90
34095;DHT22;20372;47.080;15.410;2023-06-10T07:40:05;18.80;99.90
34095;DHT22;20372;47.080;15.410;2023-06-10T07:42:32;18.70;99.90
34095;DHT22;20372;47.080;15.410;2023-06-10T07:44:58;18.70;99.90
34095;DHT22;20372;47.080;15.410;2023-06-10T07:47:23;18.70;99.90
34095;DHT22;20372;47.080;15.410;2023-06-10T07:49:49;18.70;99.90
34095;DHT22;20372;47.080;15.410;2023-06-10T07:52:15;18.80;99.90
34095;DHT22;20372;47.080;15.410;2023-06-10T07:54:40;18.90;99.90
34095;DHT22;20372;47.080;15.410;2023-06-10T07:57:06;18.90;99.90
34095;DHT22;20372;47.080;15.410;2023-06-10T07:59:35;18.90;99.90
34095;DHT22;20372;47.080;15.410;2023-06-10T08:02:00;19.00;99.90
34095;DHT22;20372;47.080;15.410;2023-06-10T08:04:26;19.20;99.90
34095;DHT22;20372;47.080;15.410;2023-06-10T08:06:52;19.30;99.90
34095;DHT22;20372;47.080;15.410;2023-06-10T08:09:17;19.50;99.90
34095;DHT22;20372;47.080;15.410;2023-06-10T08:11:43;19.50;99.90
34095;DHT22;20372;47.080;15.410;2023-06-10T08:14:09;19.50;99.90
34095;DHT22;20372;47.080;15.410;2023-06-10T08:16:35;19.60;99.90
34095;DHT22;20372;47.080;15.410;2023-06-10T08:19:00;19.80;99.90
34095;DHT22;20372;47.080;15.410;2023-06-10T08:21:26;20.20;99.90
34095;DHT22;20372;47.080;15.410;2023-06-10T08:23:54;20.30;99.90
34095;DHT22;20372;47.080;15.410;2023-06-10T08:26:19;20.40;99.90
34095;DHT22;20372;47.080;15.410;2023-06-10T08:28:45;20.10;99.90
34095;DHT22;20372;47.080;15.410;2023-06-10T08:31:11;20.10;99.90
34095;DHT22;20372;47.080;15.410;2023-06-10T08:33:36;20.30;99.90
34095;DHT22;20372;47.080;15.410;2023-06-10T08:36:02;20.40;99.90
34095;DHT22;20372;47.080;15.410;2023-06-10T08:38:27;20.10;99.90
34095;DHT22;20372;47.080;15.410;2023-06-10T08:40:55;20.00;99.90
34095;DHT22;20372;47.080;15.410;2023-06-10T08:43:22;19.90;99.90
34095;DHT22;20372;47.080;15.410;2023-06-10T08:45:51;20.10;99.90
34095;DHT22;20372;47.080;15.410;2023-06-10T08:48:19;20.50;99.90
34095;DHT22;20372;47.080;15.410;2023-06-10T08:50:44;21.00;99.90
34095;DHT22;20372;47.080;15.410;2023-06-10T08:53:10;21.00;99.90
34095;DHT22;20372;47.080;15.410;2023-06-10T08:55:41;21.00;99.90
34095;DHT22;20372;47.080;15.410;2023-06-10T08:58:07;20.80;99.90
34095;DHT22;20372;47.080;15.410;2023-06-10T09:00:33;20.60;99.90
34095;DHT22;20372;47.080;15.410;2023-06-10T09:02:59;20.70;99.90
34095;DHT22;20372;47.080;15.410;2023-06-10T09:05:26;20.50;99.90
34095;DHT22;20372;47.080;15.410;2023-06-10T09:07:52;20.50;99.90
34095;DHT22;20372;47.080;15.410;2023-06-10T09:10:19;20.70;99.90
34095;DHT22;20372;47.080;15.410;2023-06-10T09:12:45;20.60;99.90
34095;DHT22;20372;47.080;15.410;2023-06-10T09:15:10;20.60;99.90
34095;DHT22;20372;47.080;15.410;2023-06-10T09:17:38;20.90;99.90
34095;DHT22;20372;47.080;15.410;2023-06-10T09:20:06;21.20;99.90
34095;DHT22;20372;47.080;15.410;2023-06-10T09:22:32;21.00;99.90
34095;DHT22;20372;47.080;15.410;2023-06-10T09:25:04;20.80;99.90
34095;DHT22;20372;47.080;15.410;2023-06-10T09:27:30;20.80;99.90
34095;DHT22;20372;47.080;15.410;2023-06-10T09:29:57;20.70;99.90
34095;DHT22;20372;47.080;15.410;2023-06-10T09:32:23;20.80;99.90
34095;DHT22;20372;47.080;15.410;2023-06-10T09:34:49;21.00;99.90
34095;DHT22;20372;47.080;15.410;2023-06-10T09:37:24;21.00;99.90
34095;DHT22;20372;47.080;15.410;2023-06-10T09:40:03;21.20;99.90
34095;DHT22;20372;47.080;15.410;2023-06-10T09:42:31;21.20;99.90
34095;DHT22;20372;47.080;15.410;2023-06-10T09:44:57;21.00;99.90
34095;DHT22;20372;47.080;15.410;2023-06-10T09:47:23;20.70;99.90
34095;DHT22;20372;47.080;15.410;2023-06-10T09:49:49;20.80;99.90
34095;DHT22;20372;47.080;15.410;2023-06-10T09:52:25;20.70;99.90
34095;DHT22;20372;47.080;15.410;2023-06-10T09:54:51;21.00;99.90
34095;DHT22;20372;47.080;15.410;2023-06-10T09:57:17;21.40;99.90
34095;DHT22;20372;47.080;15.410;2023-06-10T09:59:43;21.50;99.90
34095;DHT22;20372;47.080;15.410;2023-06-10T10:02:17;21.60;99.90
34095;DHT22;20372;47.080;15.410;2023-06-10T10:04:46;21.60;99.90
34095;DHT22;20372;47.080;15.410;2023-06-10T10:07:12;21.60;99.90
34095;DHT22;20372;47.080;15.410;2023-06-10T10:09:39;21.60;99.90
34095;DHT22;20372;47.080;15.410;2023-06-10T10:14:33;21.60;99.90
34095;DHT22;20372;47.080;15.410;2023-06-10T10:16:59;21.90;99.90
34095;DHT22;20372;47.080;15.410;2023-06-10T10:19:30;21.90;99.90
34095;DHT22;20372;47.080;15.410;2023-06-10T10:22:01;21.90;99.90
34095;DHT22;20372;47.080;15.410;2023-06-10T10:25:10;21.90;99.90
34095;DHT22;20372;47.080;15.410;2023-06-10T10:30:14;22.20;99.90
34095;DHT22;20372;47.080;15.410;2023-06-10T10:35:12;22.00;99.90
34095;DHT22;20372;47.080;15.410;2023-06-10T10:37:39;22.00;99.90
34095;DHT22;20372;47.080;15.410;2023-06-10T10:40:04;21.90;99.90
34095;DHT22;20372;47.080;15.410;2023-06-10T10:42:31;21.70;99.90
34095;DHT22;20372;47.080;15.410;2023-06-10T10:44:57;21.70;99.90
34095;DHT22;20372;47.080;15.410;2023-06-10T10:47:23;21.70;99.90
34095;DHT22;20372;47.080;15.410;2023-06-10T10:49:51;21.70;99.90
34095;DHT22;20372;47.080;15.410;2023-06-10T10:52:18;21.90;99.90
34095;DHT22;20372;47.080;15.410;2023-06-10T10:54:45;22.20;99.90
34095;DHT22;20372;47.080;15.410;2023-06-10T10:57:21;22.60;99.90
34095;DHT22;20372;47.080;15.410;2023-06-10T11:02:46;22.90;99.90
34095;DHT22;20372;47.080;15.410;2023-06-10T11:05:06;22.90;99.90
34095;DHT22;20372;47.080;15.410;2023-06-10T11:07:32;22.80;99.90
34095;DHT22;20372;47.080;15.410;2023-06-10T11:10:08;22.80;99.90
34095;DHT22;20372;47.080;15.410;2023-06-10T11:15:06;23.20;99.90
34095;DHT22;20372;47.080;15.410;2023-06-10T11:17:31;23.30;99.90
34095;DHT22;20372;47.080;15.410;2023-06-10T11:19:58;23.20;99.90
34095;DHT22;20372;47.080;15.410;2023-06-10T11:22:24;23.20;99.90
34095;DHT22;20372;47.080;15.410;2023-06-10T11:24:50;23.40;99.90
34095;DHT22;20372;47.080;15.410;2023-06-10T11:27:17;23.60;99.90
34095;DHT22;20372;47.080;15.410;2023-06-10T11:32:32;23.90;99.90
34095;DHT22;20372;47.080;15.410;2023-06-10T11:34:58;23.30;99.90
34095;DHT22;20372;47.080;15.410;2023-06-10T11:37:23;23.10;99.90
34095;DHT22;20372;47.080;15.410;2023-06-10T11:39:55;23.10;99.90
34095;DHT22;20372;47.080;15.410;2023-06-10T11:42:21;23.00;99.90
34095;DHT22;20372;47.080;15.410;2023-06-10T11:44:50;23.00;99.90
34095;DHT22;20372;47.080;15.410;2023-06-10T11:47:17;23.30;99.90
34095;DHT22;20372;47.080;15.410;2023-06-10T11:49:42;23.20;99.90
34095;DHT22;20372;47.080;15.410;2023-06-10T11:52:08;23.20;99.90
34095;DHT22;20372;47.080;15.410;2023-06-10T11:54:34;23.30;99.90
34095;DHT22;20372;47.080;15.410;2023-06-10T11:57:00;23.40;99.90
34095;DHT22;20372;47.080;15.410;2023-06-10T11:59:29;23.50;99.90
34095;DHT22;20372;47.080;15.410;2023-06-10T12:01:55;23.20;99.90
34095;DHT22;20372;47.080;15.410;2023-06-10T12:04:21;23.30;99.90
34095;DHT22;20372;47.080;15.410;2023-06-10T12:06:50;23.60;99.90
34095;DHT22;20372;47.080;15.410;2023-06-10T12:09:21;23.80;99.90
34095;DHT22;20372;47.080;15.410;2023-06-10T12:11:51;23.50;99.90
34095;DHT22;20372;47.080;15.410;2023-06-10T12:14:49;23.30;99.90
34095;DHT22;20372;47.080;15.410;2023-06-10T12:17:03;23.50;99.90
34095;DHT22;20372;47.080;15.410;2023-06-10T12:19:28;24.00;99.90
34095;DHT22;20372;47.080;15.410;2023-06-10T12:21:54;24.60;99.90
34095;DHT22;20372;47.080;15.410;2023-06-10T12:24:20;24.70;99.90
34095;DHT22;20372;47.080;15.410;2023-06-10T12:26:45;24.70;99.90
34095;DHT22;20372;47.080;15.410;2023-06-10T12:31:55;24.80;99.90
34095;DHT22;20372;47.080;15.410;2023-06-10T12:34:34;25.50;99.90
34095;DHT22;20372;47.080;15.410;2023-06-10T12:37:01;25.10;99.90
34095;DHT22;20372;47.080;15.410;2023-06-10T12:39:30;24.60;99.90
34095;DHT22;20372;47.080;15.410;2023-06-10T12:41:56;23.90;99.90
34095;DHT22;20372;47.080;15.410;2023-06-10T12:44:28;23.60;99.90
34095;DHT22;20372;47.080;15.410;2023-06-10T12:46:54;23.20;99.90
34095;DHT22;20372;47.080;15.410;2023-06-10T12:49:21;23.10;99.90
34095;DHT22;20372;47.080;15.410;2023-06-10T12:51:47;22.40;99.90
34095;DHT22;20372;47.080;15.410;2023-06-10T12:54:12;20.90;99.90
34095;DHT22;20372;47.080;15.410;2023-06-10T12:56:38;19.80;99.90
34095;DHT22;20372;47.080;15.410;2023-06-10T12:59:04;19.70;99.90
34095;DHT22;20372;47.080;15.410;2023-06-10T13:01:31;19.80;99.90
34095;DHT22;20372;47.080;15.410;2023-06-10T13:03:57;19.90;99.90
34095;DHT22;20372;47.080;15.410;2023-06-10T13:06:22;20.00;99.90
34095;DHT22;20372;47.080;15.410;2023-06-10T13:08:48;20.20;99.90
34095;DHT22;20372;47.080;15.410;2023-06-10T13:11:14;20.20;99.90
34095;DHT22;20372;47.080;15.410;2023-06-10T13:13:39;20.50;99.90
34095;DHT22;20372;47.080;15.410;2023-06-10T13:16:05;20.80;99.90
34095;DHT22;20372;47.080;15.410;2023-06-10T13:18:30;20.90;99.90
34095;DHT22;20372;47.080;15.410;2023-06-10T13:21:05;21.00;99.90
34095;DHT22;20372;47.080;15.410;2023-06-10T13:23:30;21.00;99.90
34095;DHT22;20372;47.080;15.410;2023-06-10T13:25:57;20.80;99.90
34095;DHT22;20372;47.080;15.410;2023-06-10T13:28:23;20.70;99.90
34095;DHT22;20372;47.080;15.410;2023-06-10T13:30:48;20.90;99.90
34095;DHT22;20372;47.080;15.410;2023-06-10T13:33:14;21.10;99.90
34095;DHT22;20372;47.080;15.410;2023-06-10T13:35:39;21.40;99.90
34095;DHT22;20372;47.080;15.410;2023-06-10T13:38:06;21.50;99.90
34095;DHT22;20372;47.080;15.410;2023-06-10T13:40:32;21.60;99.90
34095;DHT22;20372;47.080;15.410;2023-06-10T13:42:58;21.50;99.90
34095;DHT22;20372;47.080;15.410;2023-06-10T13:45:23;21.40;99.90
34095;DHT22;20372;47.080;15.410;2023-06-10T13:47:50;21.70;99.90
34095;DHT22;20372;47.080;15.410;2023-06-10T13:50:16;21.90;99.90
34095;DHT22;20372;47.080;15.410;2023-06-10T13:52:41;21.50;99.90
34095;DHT22;20372;47.080;15.410;2023-06-10T13:55:07;21.40;99.90
34095;DHT22;20372;47.080;15.410;2023-06-10T13:57:33;21.20;99.90
34095;DHT22;20372;47.080;15.410;2023-06-10T14:00:01;21.10;99.90
34095;DHT22;20372;47.080;15.410;2023-06-10T14:02:27;21.00;99.90
34095;DHT22;20372;47.080;15.410;2023-06-10T14:04:53;20.90;99.90
34095;DHT22;20372;47.080;15.410;2023-06-10T14:07:18;20.90;99.90
34095;DHT22;20372;47.080;15.410;2023-06-10T14:09:44;21.00;99.90
34095;DHT22;20372;47.080;15.410;2023-06-10T14:12:10;20.90;99.90
34095;DHT22;20372;47.080;15.410;2023-06-10T14:14:36;20.90;99.90
34095;DHT22;20372;47.080;15.410;2023-06-10T14:17:02;20.90;99.90
34095;DHT22;20372;47.080;15.410;2023-06-10T14:19:29;20.70;99.90
34095;DHT22;20372;47.080;15.410;2023-06-10T14:21:55;20.50;99.90
34095;DHT22;20372;47.080;15.410;2023-06-10T14:24:21;20.50;99.90
34095;DHT22;20372;47.080;15.410;2023-06-10T14:26:46;20.30;99.90
34095;DHT22;20372;47.080;15.410;2023-06-10T14:29:13;20.20;99.90
34095;DHT22;20372;47.080;15.410;2023-06-10T14:31:43;20.00;99.90
34095;DHT22;20372;47.080;15.410;2023-06-10T14:34:09;19.80;99.90
34095;DHT22;20372;47.080;15.410;2023-06-10T14:36:34;19.60;99.90
34095;DHT22;20372;47.080;15.410;2023-06-10T14:39:00;19.50;99.90
34095;DHT22;20372;47.080;15.410;2023-06-10T14:41:26;19.60;99.90
34095;DHT22;20372;47.080;15.410;2023-06-10T14:43:52;19.50;99.90
34095;DHT22;20372;47.080;15.410;2023-06-10T14:46:17;19.60;99.90
34095;DHT22;20372;47.080;15.410;2023-06-10T14:48:43;19.70;99.90
34095;DHT22;20372;47.080;15.410;2023-06-10T14:51:08;19.90;99.90
34095;DHT22;20372;47.080;15.410;2023-06-10T14:53:34;20.10;99.90
34095;DHT22;20372;47.080;15.410;2023-06-10T14:56:00;20.20;99.90
34095;DHT22;20372;47.080;15.410;2023-06-10T14:58:25;20.20;99.90
34095;DHT22;20372;47.080;15.410;2023-06-10T15:00:51;20.20;99.90
34095;DHT22;20372;47.080;15.410;2023-06-10T15:03:17;20.30;99.90
34095;DHT22;20372;47.080;15.410;2023-06-10T15:05:42;20.30;99.90
34095;DHT22;20372;47.080;15.410;2023-06-10T15:08:10;20.30;99.90
34095;DHT22;20372;47.080;15.410;2023-06-10T15:10:36;20.40;99.90
34095;DHT22;20372;47.080;15.410;2023-06-10T15:13:02;20.40;99.90
34095;DHT22;20372;47.080;15.410;2023-06-10T15:15:27;20.40;99.90
34095;DHT22;20372;47.080;15.410;2023-06-10T15:17:53;20.40;99.90
34095;DHT22;20372;47.080;15.410;2023-06-10T15:20:19;20.30;99.90
34095;DHT22;20372;47.080;15.410;2023-06-10T15:22:45;20.40;99.90
34095;DHT22;20372;47.080;15.410;2023-06-10T15:25:11;20.30;99.90
34095;DHT22;20372;47.080;15.410;2023-06-10T15:27:36;20.30;99.90
34095;DHT22;20372;47.080;15.410;2023-06-10T15:30:02;20.40;99.90
34095;DHT22;20372;47.080;15.410;2023-06-10T15:32:28;20.40;99.90